createdAt,value
2017-11-23T00:00:23.158Z,996.27
2017-11-23T00:01:23.090Z,996.24
2017-11-23T00:02:23.171Z,996.26
2017-11-23T00:03:23.103Z,996.23
2017-11-23T00:04:23.183Z,996.23
2017-11-23T00:05:23.131Z,996.24
2017-11-23T00:06:23.217Z,996.21
2017-11-23T00:07:23.138Z,996.20
2017-11-23T00:08:23.184Z,996.17
2017-11-23T00:09:23.163Z,996.19
2017-11-23T00:10:23.189Z,996.18
2017-11-23T00:11:23.178Z,996.24
2017-11-23T00:12:23.215Z,996.15
2017-11-23T00:13:23.196Z,996.10
2017-11-23T00:14:23.221Z,996.09
2017-11-23T00:15:23.216Z,996.04
2017-11-23T00:16:24.261Z,996.03
2017-11-23T00:17:23.228Z,996.05
2017-11-23T00:18:23.255Z,996.03
2017-11-23T00:19:23.251Z,996.07
2017-11-23T00:20:23.366Z,996.03
2017-11-23T00:21:23.264Z,996.02
2017-11-23T00:22:23.379Z,995.99
2017-11-23T00:23:23.279Z,996.01
2017-11-23T00:24:23.392Z,995.94
2017-11-23T00:25:23.302Z,995.93
2017-11-23T00:26:23.406Z,995.94
2017-11-23T00:27:23.321Z,996.02
2017-11-23T00:28:23.426Z,996.01
2017-11-23T00:29:23.323Z,996.06
2017-11-23T00:30:23.433Z,996.18
2017-11-23T00:31:23.342Z,996.20
2017-11-23T00:32:23.448Z,996.11
2017-11-23T00:33:23.359Z,996.15
2017-11-23T00:34:23.444Z,996.22
2017-11-23T00:35:23.376Z,996.19
2017-11-23T00:36:23.455Z,996.21
2017-11-23T00:37:23.405Z,996.32
2017-11-23T00:38:23.487Z,996.20
2017-11-23T00:39:23.409Z,996.22
2017-11-23T00:40:24.520Z,996.32
2017-11-23T00:41:23.434Z,996.22
2017-11-23T00:42:23.512Z,996.21
2017-11-23T00:43:23.443Z,996.12
2017-11-23T00:44:23.521Z,996.13
2017-11-23T00:45:23.458Z,996.09
2017-11-23T00:46:24.560Z,996.09
2017-11-23T00:47:23.474Z,996.09
2017-11-23T00:48:28.157Z,996.14
2017-11-23T00:49:23.489Z,996.13
2017-11-23T00:50:23.564Z,996.06
2017-11-23T00:51:23.512Z,996.06
2017-11-23T00:52:23.959Z,996.09
2017-11-23T00:53:23.519Z,996.10
2017-11-23T00:54:23.571Z,996.07
2017-11-23T00:55:23.539Z,996.06
2017-11-23T00:56:24.610Z,996.03
2017-11-23T00:57:23.557Z,996.01
2017-11-23T00:58:23.601Z,996.06
2017-11-23T00:59:23.565Z,996.04
2017-11-23T01:00:24.636Z,996.00
2017-11-23T01:01:23.582Z,995.99
2017-11-23T01:02:23.621Z,995.95
2017-11-23T01:03:23.608Z,995.97
2017-11-23T01:04:23.643Z,996.04
2017-11-23T01:05:23.625Z,995.92
2017-11-23T01:06:23.753Z,995.90
2017-11-23T01:07:23.640Z,995.91
2017-11-23T01:08:23.768Z,995.90
2017-11-23T01:09:23.659Z,995.94
2017-11-23T01:10:23.781Z,995.94
2017-11-23T01:11:23.688Z,995.89
2017-11-23T01:12:23.805Z,995.87
2017-11-23T01:13:23.692Z,995.90
2017-11-23T01:14:24.733Z,995.89
2017-11-23T01:15:23.709Z,995.86
2017-11-23T01:16:23.828Z,995.88
2017-11-23T01:17:23.728Z,995.88
2017-11-23T01:18:23.830Z,995.88
2017-11-23T01:19:23.752Z,995.82
2017-11-23T01:20:23.842Z,995.91
2017-11-23T01:21:23.766Z,995.91
2017-11-23T01:22:23.860Z,995.86
2017-11-23T01:23:23.780Z,995.82
2017-11-23T01:24:23.872Z,995.77
2017-11-23T01:25:23.792Z,995.80
2017-11-23T01:26:23.885Z,995.75
2017-11-23T01:27:23.806Z,995.73
2017-11-23T01:28:23.899Z,995.72
2017-11-23T01:29:23.822Z,995.77
2017-11-23T01:30:23.916Z,995.68
2017-11-23T01:31:23.840Z,995.72
2017-11-23T01:32:23.929Z,995.74
2017-11-23T01:33:23.861Z,995.74
2017-11-23T01:34:23.942Z,995.76
2017-11-23T01:35:23.871Z,995.73
2017-11-23T01:36:23.960Z,995.83
2017-11-23T01:37:23.897Z,995.76
2017-11-23T01:38:23.969Z,995.75
2017-11-23T01:39:23.927Z,995.81
2017-11-23T01:40:23.983Z,995.75
2017-11-23T01:41:23.933Z,995.72
2017-11-23T01:42:23.998Z,995.69
2017-11-23T01:43:23.949Z,995.70
2017-11-23T01:44:24.010Z,995.61
2017-11-23T01:45:23.955Z,995.68
2017-11-23T01:46:24.023Z,995.62
2017-11-23T01:47:23.964Z,995.63
2017-11-23T01:48:24.036Z,995.60
2017-11-23T01:49:23.995Z,995.59
2017-11-23T01:50:24.051Z,995.59
2017-11-23T01:51:23.998Z,995.57
2017-11-23T01:52:24.065Z,995.58
2017-11-23T01:53:24.015Z,995.53
2017-11-23T01:54:24.084Z,995.53
2017-11-23T01:55:24.036Z,995.57
2017-11-23T01:56:24.096Z,995.51
2017-11-23T01:57:24.051Z,995.54
2017-11-23T01:58:25.132Z,995.47
2017-11-23T01:59:24.072Z,995.43
2017-11-23T02:00:24.124Z,995.37
2017-11-23T02:01:24.080Z,995.37
2017-11-23T02:02:24.141Z,995.32
2017-11-23T02:03:24.104Z,995.41
2017-11-23T02:04:24.148Z,995.46
2017-11-23T02:05:24.109Z,995.44
2017-11-23T02:06:24.166Z,995.43
2017-11-23T02:07:24.132Z,995.41
2017-11-23T02:08:24.185Z,995.39
2017-11-23T02:09:24.157Z,995.38
2017-11-23T02:10:24.189Z,995.38
2017-11-23T02:11:24.168Z,995.32
2017-11-23T02:12:24.201Z,995.35
2017-11-23T02:13:24.187Z,995.33
2017-11-23T02:14:24.216Z,995.32
2017-11-23T02:15:24.202Z,995.31
2017-11-23T02:16:24.237Z,995.24
2017-11-23T02:17:24.216Z,995.25
2017-11-23T02:18:24.264Z,995.21
2017-11-23T02:19:24.235Z,995.23
2017-11-23T02:20:24.366Z,995.22
2017-11-23T02:21:24.255Z,995.24
2017-11-23T02:22:24.277Z,995.21
2017-11-23T02:23:24.269Z,995.16
2017-11-23T02:24:24.325Z,995.14
2017-11-23T02:25:24.280Z,995.14
2017-11-23T02:26:24.334Z,995.14
2017-11-23T02:27:24.298Z,995.16
2017-11-23T02:28:24.349Z,995.13
2017-11-23T02:29:24.313Z,995.09
2017-11-23T02:30:24.376Z,995.09
2017-11-23T02:31:24.327Z,995.10
2017-11-23T02:32:24.391Z,995.07
2017-11-23T02:33:24.348Z,995.02
2017-11-23T02:34:24.389Z,995.04
2017-11-23T02:35:24.378Z,994.90
2017-11-23T02:36:24.407Z,994.92
2017-11-23T02:37:24.375Z,994.87
2017-11-23T02:38:25.452Z,994.88
2017-11-23T02:39:24.396Z,994.93
2017-11-23T02:40:24.435Z,994.91
2017-11-23T02:41:24.416Z,994.93
2017-11-23T02:42:24.457Z,994.96
2017-11-23T02:43:24.428Z,994.96
2017-11-23T02:44:24.471Z,995.01
2017-11-23T02:45:24.457Z,995.04
2017-11-23T02:46:26.094Z,994.93
2017-11-23T02:47:24.462Z,994.99
2017-11-23T02:48:24.491Z,994.91
2017-11-23T02:49:24.472Z,994.89
2017-11-23T02:50:24.502Z,994.89
2017-11-23T02:51:24.502Z,994.88
2017-11-23T02:52:24.515Z,994.86
2017-11-23T02:53:24.505Z,994.84
2017-11-23T02:54:24.535Z,994.85
2017-11-23T02:55:24.524Z,994.88
2017-11-23T02:56:24.551Z,994.94
2017-11-23T02:57:24.539Z,994.93
2017-11-23T02:58:24.555Z,994.95
2017-11-23T02:59:24.559Z,994.94
2017-11-23T03:00:24.579Z,994.91
2017-11-23T03:01:24.562Z,994.89
2017-11-23T03:02:24.591Z,994.92
2017-11-23T03:03:24.584Z,994.92
2017-11-23T03:04:24.698Z,994.91
2017-11-23T03:05:24.602Z,994.95
2017-11-23T03:06:24.725Z,994.94
2017-11-23T03:07:24.612Z,994.98
2017-11-23T03:08:24.750Z,994.97
2017-11-23T03:09:24.641Z,994.92
2017-11-23T03:10:24.753Z,994.95
2017-11-23T03:11:24.650Z,994.95
2017-11-23T03:12:24.777Z,994.94
2017-11-23T03:13:24.676Z,994.91
2017-11-23T03:14:24.784Z,994.86
2017-11-23T03:15:24.687Z,994.84
2017-11-23T03:16:24.797Z,994.82
2017-11-23T03:17:24.701Z,994.86
2017-11-23T03:18:24.810Z,994.80
2017-11-23T03:19:24.714Z,994.82
2017-11-23T03:20:24.840Z,994.82
2017-11-23T03:21:24.740Z,994.81
2017-11-23T03:22:24.831Z,994.75
2017-11-23T03:23:24.747Z,994.73
2017-11-23T03:24:24.850Z,994.63
2017-11-23T03:25:24.765Z,994.63
2017-11-23T03:26:24.860Z,994.64
2017-11-23T03:27:24.782Z,994.65
2017-11-23T03:28:24.874Z,994.67
2017-11-23T03:29:24.798Z,994.60
2017-11-23T03:30:24.888Z,994.63
2017-11-23T03:31:24.811Z,994.58
2017-11-23T03:32:24.901Z,994.61
2017-11-23T03:33:24.833Z,994.58
2017-11-23T03:34:24.919Z,994.60
2017-11-23T03:35:24.843Z,994.60
2017-11-23T03:36:24.925Z,994.59
2017-11-23T03:37:24.866Z,994.56
2017-11-23T03:38:24.941Z,994.59
2017-11-23T03:39:24.874Z,994.57
2017-11-23T03:40:24.957Z,994.54
2017-11-23T03:41:24.896Z,994.56
2017-11-23T03:42:24.968Z,994.52
2017-11-23T03:43:24.909Z,994.47
2017-11-23T03:44:24.981Z,994.47
2017-11-23T03:45:24.929Z,994.45
2017-11-23T03:46:24.995Z,994.42
2017-11-23T03:47:24.946Z,994.41
2017-11-23T03:48:25.019Z,994.43
2017-11-23T03:49:24.966Z,994.43
2017-11-23T03:50:25.020Z,994.54
2017-11-23T03:51:24.979Z,994.51
2017-11-23T03:52:25.035Z,994.62
2017-11-23T03:53:24.986Z,994.70
2017-11-23T03:54:25.055Z,994.71
2017-11-23T03:55:25.005Z,994.71
2017-11-23T03:56:25.066Z,994.63
2017-11-23T03:57:25.021Z,994.64
2017-11-23T03:58:26.106Z,994.59
2017-11-23T03:59:25.034Z,994.54
2017-11-23T04:00:25.099Z,994.54
2017-11-23T04:01:25.049Z,994.51
2017-11-23T04:02:25.109Z,994.52
2017-11-23T04:03:25.063Z,994.54
2017-11-23T04:04:25.122Z,994.53
2017-11-23T04:05:25.085Z,994.57
2017-11-23T04:06:25.133Z,994.54
2017-11-23T04:07:25.101Z,994.59
2017-11-23T04:08:25.149Z,994.49
2017-11-23T04:09:25.113Z,994.49
2017-11-23T04:10:25.162Z,994.43
2017-11-23T04:11:25.140Z,994.44
2017-11-23T04:12:25.175Z,994.39
2017-11-23T04:13:25.150Z,994.41
2017-11-23T04:14:25.241Z,994.33
2017-11-23T04:15:25.162Z,994.35
2017-11-23T04:16:25.246Z,994.31
2017-11-23T04:17:25.176Z,994.32
2017-11-23T04:18:25.260Z,994.33
2017-11-23T04:19:25.190Z,994.32
2017-11-23T04:20:25.274Z,994.33
2017-11-23T04:21:25.210Z,994.39
2017-11-23T04:22:25.289Z,994.38
2017-11-23T04:23:25.228Z,994.50
2017-11-23T04:24:30.214Z,994.46
2017-11-23T04:25:25.241Z,994.49
2017-11-23T04:26:25.312Z,994.44
2017-11-23T04:27:25.268Z,994.43
2017-11-23T04:28:25.296Z,994.43
2017-11-23T04:29:25.287Z,994.36
2017-11-23T04:30:25.313Z,994.28
2017-11-23T04:31:25.290Z,994.30
2017-11-23T04:32:25.315Z,994.26
2017-11-23T04:33:25.308Z,994.29
2017-11-23T04:34:25.334Z,994.22
2017-11-23T04:35:25.323Z,994.25
2017-11-23T04:36:25.343Z,994.31
2017-11-23T04:37:25.335Z,994.25
2017-11-23T04:38:25.468Z,994.23
2017-11-23T04:39:25.352Z,994.23
2017-11-23T04:40:25.488Z,994.22
2017-11-23T04:41:25.370Z,994.21
2017-11-23T04:42:25.486Z,994.24
2017-11-23T04:43:25.387Z,994.16
2017-11-23T04:44:25.506Z,994.20
2017-11-23T04:45:25.413Z,994.21
2017-11-23T04:46:25.471Z,994.16
2017-11-23T04:47:25.427Z,994.21
2017-11-23T04:48:25.479Z,994.25
2017-11-23T04:49:25.442Z,994.19
2017-11-23T04:50:25.491Z,994.23
2017-11-23T04:51:25.452Z,994.21
2017-11-23T04:52:25.504Z,994.13
2017-11-23T04:53:25.578Z,994.19
2017-11-23T04:54:26.547Z,994.29
2017-11-23T04:55:25.480Z,994.22
2017-11-23T04:56:25.535Z,994.27
2017-11-23T04:57:25.500Z,994.21
2017-11-23T04:58:26.569Z,994.16
2017-11-23T04:59:25.512Z,994.16
2017-11-23T05:00:25.564Z,994.11
2017-11-23T05:01:25.531Z,994.04
2017-11-23T05:02:25.578Z,994.15
2017-11-23T05:03:25.545Z,994.20
2017-11-23T05:04:32.248Z,994.20
2017-11-23T05:05:25.560Z,994.26
2017-11-23T05:06:25.603Z,994.22
2017-11-23T05:07:25.576Z,994.25
2017-11-23T05:08:27.666Z,994.13
2017-11-23T05:09:25.588Z,994.12
2017-11-23T05:10:25.629Z,994.12
2017-11-23T05:11:25.610Z,994.15
2017-11-23T05:12:25.644Z,994.03
2017-11-23T05:13:25.624Z,994.03
2017-11-23T05:14:25.652Z,993.95
2017-11-23T05:15:25.635Z,993.96
2017-11-23T05:16:25.669Z,994.04
2017-11-23T05:17:25.650Z,994.04
2017-11-23T05:18:26.721Z,994.05
2017-11-23T05:19:25.667Z,994.00
2017-11-23T05:20:26.710Z,993.99
2017-11-23T05:21:25.689Z,994.02
2017-11-23T05:22:30.211Z,994.04
2017-11-23T05:23:25.703Z,994.08
2017-11-23T05:24:25.726Z,994.09
2017-11-23T05:25:25.720Z,994.07
2017-11-23T05:26:25.837Z,994.10
2017-11-23T05:27:25.741Z,994.28
2017-11-23T05:28:26.772Z,994.15
2017-11-23T05:29:25.757Z,994.00
2017-11-23T05:30:31.806Z,993.94
2017-11-23T05:31:25.763Z,993.99
2017-11-23T05:32:25.881Z,994.00
2017-11-23T05:33:25.785Z,993.96
2017-11-23T05:34:30.810Z,993.98
2017-11-23T05:35:25.798Z,994.01
2017-11-23T05:36:25.910Z,993.94
2017-11-23T05:37:25.812Z,993.92
2017-11-23T05:38:27.867Z,993.94
2017-11-23T05:39:25.831Z,994.08
2017-11-23T05:40:25.839Z,994.02
2017-11-23T05:41:25.841Z,993.96
2017-11-23T05:42:25.853Z,993.91
2017-11-23T05:43:25.862Z,993.89
2017-11-23T05:44:25.870Z,993.96
2017-11-23T05:45:25.876Z,994.01
2017-11-23T05:46:25.890Z,994.01
2017-11-23T05:47:25.974Z,994.00
2017-11-23T05:48:25.899Z,994.01
2017-11-23T05:49:25.904Z,994.06
2017-11-23T05:50:27.136Z,994.05
2017-11-23T05:51:25.925Z,994.05
2017-11-23T05:52:27.047Z,994.06
2017-11-23T05:53:27.112Z,994.02
2017-11-23T05:54:26.034Z,994.01
2017-11-23T05:55:25.956Z,994.01
2017-11-23T05:56:25.966Z,993.96
2017-11-23T05:57:25.977Z,994.01
2017-11-23T05:58:25.985Z,994.01
2017-11-23T05:59:25.983Z,993.98
2017-11-23T06:00:25.996Z,993.99
2017-11-23T06:01:26.002Z,993.93
2017-11-23T06:02:26.011Z,993.93
2017-11-23T06:03:26.026Z,994.00
2017-11-23T06:04:26.066Z,994.07
2017-11-23T06:05:26.040Z,993.94
2017-11-23T06:06:26.041Z,993.96
2017-11-23T06:07:26.051Z,993.93
2017-11-23T06:08:26.136Z,993.97
2017-11-23T06:09:26.064Z,993.91
2017-11-23T06:10:26.073Z,993.83
2017-11-23T06:11:26.085Z,993.84
2017-11-23T06:12:26.088Z,993.89
2017-11-23T06:13:26.102Z,993.87
2017-11-23T06:14:26.106Z,994.01
2017-11-23T06:15:26.176Z,993.89
2017-11-23T06:16:26.121Z,993.98
2017-11-23T06:17:26.124Z,993.98
2017-11-23T06:18:26.135Z,994.04
2017-11-23T06:19:26.144Z,994.03
2017-11-23T06:20:26.155Z,993.95
2017-11-23T06:21:26.157Z,993.91
2017-11-23T06:22:26.169Z,993.89
2017-11-23T06:23:26.173Z,993.99
2017-11-23T06:24:26.178Z,994.02
2017-11-23T06:25:26.212Z,994.05
2017-11-23T06:26:26.203Z,994.03
2017-11-23T06:27:26.211Z,993.87
2017-11-23T06:28:26.209Z,993.87
2017-11-23T06:29:26.224Z,993.86
2017-11-23T06:30:26.286Z,993.83
2017-11-23T06:31:26.239Z,993.82
2017-11-23T06:32:26.299Z,993.79
2017-11-23T06:33:26.251Z,993.77
2017-11-23T06:34:26.257Z,993.81
2017-11-23T06:35:26.269Z,993.74
2017-11-23T06:36:26.276Z,993.72
2017-11-23T06:37:26.280Z,993.73
2017-11-23T06:38:26.292Z,993.75
2017-11-23T06:39:26.301Z,993.68
2017-11-23T06:40:26.308Z,993.67
2017-11-23T06:41:26.323Z,993.67
2017-11-23T06:42:26.329Z,993.69
2017-11-23T06:43:26.321Z,993.63
2017-11-23T06:44:26.342Z,993.68
2017-11-23T06:45:27.279Z,993.79
2017-11-23T06:46:26.356Z,993.72
2017-11-23T06:47:26.362Z,993.77
2017-11-23T06:48:26.421Z,993.75
2017-11-23T06:49:26.378Z,993.83
2017-11-23T06:50:26.411Z,993.74
2017-11-23T06:51:26.399Z,993.78
2017-11-23T06:52:26.421Z,993.74
2017-11-23T06:53:26.403Z,993.78
2017-11-23T06:54:26.438Z,993.77
2017-11-23T06:55:26.429Z,993.80
2017-11-23T06:56:26.572Z,993.74
2017-11-23T06:57:26.438Z,993.65
2017-11-23T06:58:26.449Z,993.66
2017-11-23T06:59:26.451Z,993.65
2017-11-23T07:00:26.469Z,993.69
2017-11-23T07:01:26.474Z,993.64
2017-11-23T07:02:26.471Z,993.65
2017-11-23T07:03:26.486Z,993.66
2017-11-23T07:04:26.497Z,993.52
2017-11-23T07:05:26.513Z,993.53
2017-11-23T07:06:26.526Z,993.49
2017-11-23T07:07:26.523Z,993.67
2017-11-23T07:08:26.531Z,993.52
2017-11-23T07:09:26.540Z,993.57
2017-11-23T07:10:26.539Z,993.57
2017-11-23T07:11:26.546Z,993.62
2017-11-23T07:12:26.575Z,993.61
2017-11-23T07:13:26.572Z,993.57
2017-11-23T07:14:26.581Z,993.60
2017-11-23T07:15:26.585Z,993.67
2017-11-23T07:16:26.589Z,993.63
2017-11-23T07:17:26.596Z,993.60
2017-11-23T07:18:26.604Z,993.62
2017-11-23T07:19:26.663Z,993.65
2017-11-23T07:20:26.621Z,993.62
2017-11-23T07:21:26.634Z,993.61
2017-11-23T07:22:26.640Z,993.62
2017-11-23T07:23:26.747Z,993.62
2017-11-23T07:24:26.666Z,993.56
2017-11-23T07:25:26.761Z,993.54
2017-11-23T07:26:26.673Z,993.54
2017-11-23T07:27:26.776Z,993.62
2017-11-23T07:28:26.686Z,993.63
2017-11-23T07:29:26.789Z,993.56
2017-11-23T07:30:26.706Z,993.54
2017-11-23T07:31:26.801Z,993.65
2017-11-23T07:32:26.715Z,993.65
2017-11-23T07:33:26.815Z,993.67
2017-11-23T07:34:26.738Z,993.72
2017-11-23T07:35:26.829Z,993.59
2017-11-23T07:36:26.752Z,993.67
2017-11-23T07:37:26.849Z,993.64
2017-11-23T07:38:26.761Z,993.68
2017-11-23T07:39:26.770Z,993.64
2017-11-23T07:40:26.775Z,993.63
2017-11-23T07:41:26.871Z,993.63
2017-11-23T07:42:26.797Z,993.75
2017-11-23T07:43:26.895Z,993.84
2017-11-23T07:44:26.806Z,993.71
2017-11-23T07:45:26.889Z,993.69
2017-11-23T07:46:26.824Z,993.68
2017-11-23T07:47:26.913Z,993.62
2017-11-23T07:48:26.839Z,993.71
2017-11-23T07:49:26.850Z,993.63
2017-11-23T07:50:26.858Z,993.67
2017-11-23T07:51:26.867Z,993.67
2017-11-23T07:52:26.872Z,993.65
2017-11-23T07:53:26.948Z,993.63
2017-11-23T07:54:26.886Z,993.60
2017-11-23T07:55:26.969Z,993.66
2017-11-23T07:56:26.901Z,993.61
2017-11-23T07:57:26.980Z,993.57
2017-11-23T07:58:26.921Z,993.58
2017-11-23T07:59:26.991Z,993.59
2017-11-23T08:00:26.938Z,993.54
2017-11-23T08:01:27.006Z,993.52
2017-11-23T08:02:26.966Z,993.52
2017-11-23T08:03:26.953Z,993.55
2017-11-23T08:04:27.028Z,993.57
2017-11-23T08:05:26.977Z,993.64
2017-11-23T08:06:27.041Z,993.61
2017-11-23T08:07:26.994Z,993.72
2017-11-23T08:08:28.072Z,993.71
2017-11-23T08:09:27.007Z,993.68
2017-11-23T08:10:27.071Z,993.66
2017-11-23T08:11:27.018Z,993.72
2017-11-23T08:12:28.111Z,993.74
2017-11-23T08:13:27.044Z,993.71
2017-11-23T08:14:31.813Z,993.79
2017-11-23T08:15:27.054Z,993.80
2017-11-23T08:16:28.447Z,993.79
2017-11-23T08:17:27.067Z,993.77
2017-11-23T08:18:27.127Z,993.75
2017-11-23T08:19:27.086Z,993.77
2017-11-23T08:20:27.142Z,993.71
2017-11-23T08:21:27.101Z,993.88
2017-11-23T08:22:28.178Z,993.76
2017-11-23T08:23:27.170Z,993.82
2017-11-23T08:24:28.192Z,993.75
2017-11-23T08:25:27.135Z,993.81
2017-11-23T08:26:27.146Z,993.81
2017-11-23T08:27:27.148Z,993.86
2017-11-23T08:28:27.263Z,993.89
2017-11-23T08:29:27.167Z,993.94
2017-11-23T08:30:27.184Z,993.85
2017-11-23T08:31:27.188Z,993.91
2017-11-23T08:32:27.223Z,993.92
2017-11-23T08:33:27.190Z,993.98
2017-11-23T08:34:27.201Z,994.04
2017-11-23T08:35:27.218Z,993.97
2017-11-23T08:36:27.224Z,993.97
2017-11-23T08:37:27.231Z,993.96
2017-11-23T08:38:27.262Z,993.90
2017-11-23T08:39:27.243Z,993.96
2017-11-23T08:40:27.273Z,993.96
2017-11-23T08:41:27.262Z,993.97
2017-11-23T08:42:27.270Z,993.98
2017-11-23T08:43:27.400Z,994.03
2017-11-23T08:44:27.308Z,993.87
2017-11-23T08:45:27.308Z,993.94
2017-11-23T08:46:27.331Z,993.93
2017-11-23T08:47:27.301Z,993.90
2017-11-23T08:48:27.328Z,993.95
2017-11-23T08:49:27.326Z,994.00
2017-11-23T08:50:27.345Z,994.03
2017-11-23T08:51:27.385Z,993.93
2017-11-23T08:52:27.485Z,993.89
2017-11-23T08:53:27.359Z,993.99
2017-11-23T08:54:27.361Z,994.02
2017-11-23T08:55:28.402Z,994.02
2017-11-23T08:56:27.386Z,994.06
2017-11-23T08:57:27.716Z,994.12
2017-11-23T08:58:27.396Z,993.99
2017-11-23T08:59:27.817Z,994.08
2017-11-23T09:00:27.416Z,994.02
2017-11-23T09:01:27.523Z,994.08
2017-11-23T09:02:27.426Z,994.11
2017-11-23T09:03:27.544Z,994.13
2017-11-23T09:04:27.447Z,994.08
2017-11-23T09:05:27.554Z,994.10
2017-11-23T09:06:27.462Z,994.03
2017-11-23T09:07:27.568Z,993.99
2017-11-23T09:08:27.494Z,993.89
2017-11-23T09:09:27.591Z,993.94
2017-11-23T09:10:27.497Z,994.04
2017-11-23T09:11:27.596Z,994.01
2017-11-23T09:12:27.508Z,994.02
2017-11-23T09:13:28.628Z,994.22
2017-11-23T09:14:27.534Z,994.18
2017-11-23T09:15:28.655Z,994.03
2017-11-23T09:16:27.552Z,994.07
2017-11-23T09:17:27.625Z,994.18
2017-11-23T09:18:27.564Z,993.96
2017-11-23T09:19:28.702Z,993.91
2017-11-23T09:20:27.584Z,994.11
2017-11-23T09:21:27.660Z,994.11
2017-11-23T09:22:27.595Z,994.17
2017-11-23T09:23:27.673Z,994.23
2017-11-23T09:24:27.619Z,994.15
2017-11-23T09:25:27.685Z,993.97
2017-11-23T09:26:27.637Z,994.07
2017-11-23T09:27:27.690Z,994.03
2017-11-23T09:28:27.648Z,994.07
2017-11-23T09:29:27.713Z,994.07
2017-11-23T09:30:27.664Z,994.15
2017-11-23T09:31:27.666Z,994.18
2017-11-23T09:32:27.735Z,994.07
2017-11-23T09:33:27.683Z,994.19
2017-11-23T09:34:27.690Z,994.18
2017-11-23T09:35:27.703Z,994.15
2017-11-23T09:36:27.760Z,994.21
2017-11-23T09:37:27.722Z,994.08
2017-11-23T09:38:27.759Z,993.99
2017-11-23T09:39:27.735Z,994.08
2017-11-23T09:40:27.784Z,994.10
2017-11-23T09:41:27.753Z,994.02
2017-11-23T09:42:27.772Z,994.11
2017-11-23T09:43:27.772Z,994.15
2017-11-23T09:44:27.778Z,994.13
2017-11-23T09:45:27.851Z,994.03
2017-11-23T09:46:27.799Z,994.17
2017-11-23T09:47:27.802Z,994.15
2017-11-23T09:48:27.903Z,994.05
2017-11-23T09:49:27.828Z,994.22
2017-11-23T09:50:27.916Z,994.14
2017-11-23T09:51:27.843Z,994.08
2017-11-23T09:52:27.929Z,994.18
2017-11-23T09:53:27.858Z,994.16
2017-11-23T09:54:27.945Z,994.26
2017-11-23T09:55:27.872Z,994.31
2017-11-23T09:56:27.961Z,994.17
2017-11-23T09:57:27.898Z,994.12
2017-11-23T09:58:27.896Z,994.09
2017-11-23T09:59:27.910Z,994.09
2017-11-23T10:00:27.987Z,994.16
2017-11-23T10:01:27.922Z,994.10
2017-11-23T10:02:27.993Z,994.20
2017-11-23T10:03:27.935Z,994.01
2017-11-23T10:04:28.017Z,994.10
2017-11-23T10:05:27.965Z,994.11
2017-11-23T10:06:28.025Z,994.12
2017-11-23T10:07:27.970Z,994.25
2017-11-23T10:08:28.037Z,994.14
2017-11-23T10:09:27.979Z,994.19
2017-11-23T10:10:28.053Z,994.16
2017-11-23T10:11:28.005Z,994.21
2017-11-23T10:12:28.060Z,994.26
2017-11-23T10:13:28.021Z,994.24
2017-11-23T10:14:28.132Z,994.22
2017-11-23T10:15:28.031Z,994.22
2017-11-23T10:16:28.112Z,994.23
2017-11-23T10:17:28.058Z,994.33
2017-11-23T10:18:28.129Z,994.24
2017-11-23T10:19:28.077Z,994.28
2017-11-23T10:20:28.076Z,994.34
2017-11-23T10:21:28.106Z,994.46
2017-11-23T10:22:28.150Z,994.35
2017-11-23T10:23:28.119Z,994.38
2017-11-23T10:24:28.181Z,994.35
2017-11-23T10:25:28.121Z,994.44
2017-11-23T10:26:28.192Z,994.44
2017-11-23T10:27:28.131Z,994.34
2017-11-23T10:28:28.190Z,994.45
2017-11-23T10:29:28.159Z,994.44
2017-11-23T10:30:28.202Z,994.48
2017-11-23T10:31:28.176Z,994.49
2017-11-23T10:32:28.217Z,994.50
2017-11-23T10:33:28.184Z,994.49
2017-11-23T10:34:28.230Z,994.45
2017-11-23T10:35:28.202Z,994.46
2017-11-23T10:36:28.252Z,994.45
2017-11-23T10:37:28.215Z,994.49
2017-11-23T10:38:28.256Z,994.51
2017-11-23T10:39:28.230Z,994.58
2017-11-23T10:40:28.271Z,994.65
2017-11-23T10:41:28.251Z,994.62
2017-11-23T10:42:28.294Z,994.64
2017-11-23T10:43:28.273Z,994.66
2017-11-23T10:44:30.344Z,994.74
2017-11-23T10:45:28.277Z,994.78
2017-11-23T10:46:28.312Z,994.72
2017-11-23T10:47:28.301Z,994.82
2017-11-23T10:48:28.325Z,994.84
2017-11-23T10:49:28.355Z,994.86
2017-11-23T10:50:28.327Z,994.90
2017-11-23T10:51:28.336Z,994.80
2017-11-23T10:52:28.343Z,994.89
2017-11-23T10:53:28.358Z,994.90
2017-11-23T10:54:28.363Z,994.99
2017-11-23T10:55:28.368Z,995.02
2017-11-23T10:56:28.486Z,995.03
2017-11-23T10:57:28.396Z,995.07
2017-11-23T10:58:28.493Z,995.10
2017-11-23T10:59:28.410Z,995.16
2017-11-23T11:00:28.515Z,995.16
2017-11-23T11:01:28.422Z,995.26
2017-11-23T11:02:28.529Z,995.17
2017-11-23T11:03:28.431Z,995.16
2017-11-23T11:04:28.445Z,995.11
2017-11-23T11:05:28.478Z,995.11
2017-11-23T11:06:28.460Z,995.12
2017-11-23T11:07:28.464Z,995.16
2017-11-23T11:08:28.479Z,995.12
2017-11-23T11:09:28.490Z,995.18
2017-11-23T11:10:28.515Z,995.22
2017-11-23T11:11:28.511Z,995.17
2017-11-23T11:12:28.511Z,995.14
2017-11-23T11:13:28.622Z,995.21
2017-11-23T11:14:28.530Z,995.28
2017-11-23T11:15:28.535Z,995.26
2017-11-23T11:16:28.540Z,995.30
2017-11-23T11:17:28.548Z,995.34
2017-11-23T11:18:28.557Z,995.29
2017-11-23T11:19:28.566Z,995.34
2017-11-23T11:20:28.649Z,995.26
2017-11-23T11:21:28.587Z,995.34
2017-11-23T11:22:28.659Z,995.30
2017-11-23T11:23:28.593Z,995.36
2017-11-23T11:24:28.673Z,995.33
2017-11-23T11:25:28.618Z,995.35
2017-11-23T11:26:28.630Z,995.37
2017-11-23T11:27:29.719Z,995.41
2017-11-23T11:28:28.645Z,995.36
2017-11-23T11:29:28.710Z,995.38
2017-11-23T11:30:28.677Z,995.45
2017-11-23T11:31:28.719Z,995.34
2017-11-23T11:32:28.680Z,995.40
2017-11-23T11:33:28.733Z,995.40
2017-11-23T11:34:28.692Z,995.40
2017-11-23T11:35:28.749Z,995.41
2017-11-23T11:36:28.710Z,995.39
2017-11-23T11:37:28.767Z,995.44
2017-11-23T11:38:28.733Z,995.47
2017-11-23T11:39:28.773Z,995.42
2017-11-23T11:40:28.749Z,995.54
2017-11-23T11:41:28.784Z,995.47
2017-11-23T11:42:28.759Z,995.50
2017-11-23T11:43:28.806Z,995.46
2017-11-23T11:44:28.781Z,995.62
2017-11-23T11:45:28.814Z,995.57
2017-11-23T11:46:28.796Z,995.49
2017-11-23T11:47:28.806Z,995.50
2017-11-23T11:48:28.812Z,995.46
2017-11-23T11:49:28.824Z,995.42
2017-11-23T11:50:28.848Z,995.43
2017-11-23T11:51:28.861Z,995.39
2017-11-23T11:52:28.854Z,995.41
2017-11-23T11:53:28.864Z,995.43
2017-11-23T11:54:28.867Z,995.47
2017-11-23T11:55:28.986Z,995.45
2017-11-23T11:56:28.879Z,995.49
2017-11-23T11:57:29.017Z,995.49
2017-11-23T11:58:29.200Z,995.51
2017-11-23T11:59:29.033Z,995.46
2017-11-23T12:00:28.910Z,995.41
2017-11-23T12:01:28.923Z,995.43
2017-11-23T12:02:28.941Z,995.38
2017-11-23T12:03:28.938Z,995.43
2017-11-23T12:04:29.050Z,995.33
2017-11-23T12:05:28.957Z,995.34
2017-11-23T12:06:29.058Z,995.28
2017-11-23T12:07:28.983Z,995.31
2017-11-23T12:08:28.984Z,995.34
2017-11-23T12:09:28.994Z,995.32
2017-11-23T12:10:29.000Z,995.34
2017-11-23T12:11:29.009Z,995.38
2017-11-23T12:12:29.020Z,995.32
2017-11-23T12:13:29.026Z,995.37
2017-11-23T12:14:29.030Z,995.42
2017-11-23T12:15:29.040Z,995.41
2017-11-23T12:16:29.047Z,995.38
2017-11-23T12:17:29.071Z,995.40
2017-11-23T12:18:29.067Z,995.49
2017-11-23T12:19:29.147Z,995.41
2017-11-23T12:20:29.091Z,995.41
2017-11-23T12:21:29.097Z,995.48
2017-11-23T12:22:29.164Z,995.48
2017-11-23T12:23:29.106Z,995.49
2017-11-23T12:24:29.181Z,995.61
2017-11-23T12:25:29.128Z,995.67
2017-11-23T12:26:29.191Z,995.58
2017-11-23T12:27:29.150Z,995.59
2017-11-23T12:28:29.215Z,995.60